createdAt,value
2019-02-14T00:00:26.968Z,1011.65
2019-02-14T00:01:26.959Z,1011.72
2019-02-14T00:02:26.964Z,1011.72
2019-02-14T00:03:26.968Z,1011.72
2019-02-14T00:04:26.975Z,1011.73
2019-02-14T00:05:26.981Z,1011.75
2019-02-14T00:06:26.987Z,1011.76
2019-02-14T00:07:26.990Z,1011.77
2019-02-14T00:08:26.995Z,1011.78
2019-02-14T00:09:27.000Z,1011.79
2019-02-14T00:10:27.011Z,1011.85
2019-02-14T00:11:27.012Z,1011.76
2019-02-14T00:12:27.019Z,1011.80
2019-02-14T00:13:27.025Z,1011.81
2019-02-14T00:14:27.026Z,1011.79
2019-02-14T00:15:27.034Z,1011.79
2019-02-14T00:16:27.035Z,1011.83
2019-02-14T00:17:27.042Z,1011.79
2019-02-14T00:18:27.047Z,1011.77
2019-02-14T00:19:27.055Z,1011.80
2019-02-14T00:20:27.058Z,1011.84
2019-02-14T00:21:27.063Z,1011.82
2019-02-14T00:22:27.068Z,1011.85
2019-02-14T00:23:27.074Z,1011.86
2019-02-14T00:24:27.078Z,1011.86
2019-02-14T00:25:27.083Z,1011.88
2019-02-14T00:26:27.089Z,1011.80
2019-02-14T00:27:27.095Z,1011.84
2019-02-14T00:28:27.099Z,1011.83
2019-02-14T00:29:27.105Z,1011.86
2019-02-14T00:30:27.110Z,1011.88
2019-02-14T00:31:27.115Z,1011.89
2019-02-14T00:32:27.120Z,1011.88
2019-02-14T00:33:27.125Z,1011.93
2019-02-14T00:34:27.130Z,1011.92
2019-02-14T00:35:27.137Z,1011.96
2019-02-14T00:36:27.142Z,1011.92
2019-02-14T00:37:27.145Z,1011.90
2019-02-14T00:38:27.153Z,1011.95
2019-02-14T00:39:27.157Z,1011.95
2019-02-14T00:40:27.161Z,1012.08
2019-02-14T00:41:27.169Z,1012.09
2019-02-14T00:42:27.172Z,1012.05
2019-02-14T00:43:27.178Z,1012.13
2019-02-14T00:44:27.181Z,1012.11
2019-02-14T00:45:27.187Z,1012.12
2019-02-14T00:46:27.194Z,1012.10
2019-02-14T00:47:27.199Z,1012.10
2019-02-14T00:48:27.202Z,1012.10
2019-02-14T00:49:27.208Z,1012.16
2019-02-14T00:50:27.214Z,1012.19
2019-02-14T00:51:27.220Z,1012.24
2019-02-14T00:52:27.268Z,1012.25
2019-02-14T00:53:27.229Z,1012.29
2019-02-14T00:54:27.235Z,1012.31
2019-02-14T00:55:27.240Z,1012.33
2019-02-14T00:56:27.245Z,1012.28
2019-02-14T00:57:27.249Z,1012.36
2019-02-14T00:58:27.256Z,1012.40
2019-02-14T00:59:27.262Z,1012.42
2019-02-14T01:00:27.265Z,1012.41
2019-02-14T01:01:27.271Z,1012.39
2019-02-14T01:02:27.276Z,1012.41
2019-02-14T01:03:27.281Z,1012.42
2019-02-14T01:04:27.287Z,1012.49
2019-02-14T01:05:33.484Z,1012.49
2019-02-14T01:06:27.296Z,1012.55
2019-02-14T01:07:27.302Z,1012.55
2019-02-14T01:08:27.307Z,1012.60
2019-02-14T01:09:27.311Z,1012.64
2019-02-14T01:10:27.317Z,1012.65
2019-02-14T01:11:27.326Z,1012.67
2019-02-14T01:12:27.327Z,1012.71
2019-02-14T01:13:27.335Z,1012.72
2019-02-14T01:14:27.343Z,1012.75
2019-02-14T01:15:27.342Z,1012.84
2019-02-14T01:16:27.347Z,1012.86
2019-02-14T01:17:27.353Z,1012.88
2019-02-14T01:18:27.357Z,1012.89
2019-02-14T01:19:27.362Z,1012.88
2019-02-14T01:20:27.367Z,1012.96
2019-02-14T01:21:27.374Z,1013.02
2019-02-14T01:22:27.381Z,1013.03
2019-02-14T01:23:27.396Z,1013.11
2019-02-14T01:24:27.388Z,1013.16
2019-02-14T01:25:27.393Z,1013.20
2019-02-14T01:26:27.400Z,1013.22
2019-02-14T01:27:27.405Z,1013.27
2019-02-14T01:28:27.408Z,1013.26
2019-02-14T01:29:27.415Z,1013.29
2019-02-14T01:30:27.423Z,1013.27
2019-02-14T01:31:27.426Z,1013.30
2019-02-14T01:32:27.430Z,1013.31
2019-02-14T01:33:27.435Z,1013.29
2019-02-14T01:34:27.442Z,1013.29
2019-02-14T01:35:27.466Z,1013.29
2019-02-14T01:36:27.451Z,1013.31
2019-02-14T01:37:27.455Z,1013.31
2019-02-14T01:38:27.461Z,1013.23
2019-02-14T01:39:27.467Z,1013.28
2019-02-14T01:40:27.473Z,1013.33
2019-02-14T01:41:27.483Z,1013.35
2019-02-14T01:42:27.483Z,1013.37
2019-02-14T01:43:27.488Z,1013.37
2019-02-14T01:44:27.493Z,1013.36
2019-02-14T01:45:27.497Z,1013.39
2019-02-14T01:46:27.504Z,1013.42
2019-02-14T01:47:27.508Z,1013.48
2019-02-14T01:48:27.513Z,1013.45
2019-02-14T01:49:27.519Z,1013.52
2019-02-14T01:50:27.524Z,1013.55
2019-02-14T01:51:27.532Z,1013.50
2019-02-14T01:52:27.533Z,1013.47
2019-02-14T01:53:27.538Z,1013.54
2019-02-14T01:54:27.545Z,1013.54
2019-02-14T01:55:27.550Z,1013.58
2019-02-14T01:56:27.555Z,1013.60
2019-02-14T01:57:27.680Z,1013.59
2019-02-14T01:58:27.564Z,1013.62
2019-02-14T01:59:27.578Z,1013.61
2019-02-14T02:00:27.574Z,1013.64
2019-02-14T02:01:27.580Z,1013.62
2019-02-14T02:02:27.586Z,1013.62
2019-02-14T02:03:27.590Z,1013.68
2019-02-14T02:04:27.596Z,1013.65
2019-02-14T02:05:27.600Z,1013.67
2019-02-14T02:06:27.607Z,1013.75
2019-02-14T02:07:27.610Z,1013.71
2019-02-14T02:08:27.615Z,1013.77
2019-02-14T02:09:27.624Z,1013.75
2019-02-14T02:10:27.627Z,1013.71
2019-02-14T02:11:27.633Z,1013.72
2019-02-14T02:12:27.638Z,1013.81
2019-02-14T02:13:27.643Z,1013.84
2019-02-14T02:14:27.648Z,1013.84
2019-02-14T02:15:27.654Z,1013.97
2019-02-14T02:16:27.657Z,1014.00
2019-02-14T02:17:27.663Z,1014.03
2019-02-14T02:18:27.669Z,1014.06
2019-02-14T02:19:27.674Z,1014.02
2019-02-14T02:20:33.169Z,1014.05
2019-02-14T02:21:27.683Z,1014.12
2019-02-14T02:22:27.688Z,1014.14
2019-02-14T02:23:27.695Z,1014.23
2019-02-14T02:24:27.703Z,1014.19
2019-02-14T02:25:27.704Z,1014.26
2019-02-14T02:26:27.708Z,1014.36
2019-02-14T02:27:27.715Z,1014.38
2019-02-14T02:28:27.720Z,1014.37
2019-02-14T02:29:27.725Z,1014.42
2019-02-14T02:30:27.730Z,1014.47
2019-02-14T02:31:27.746Z,1014.53
2019-02-14T02:32:27.739Z,1014.53
2019-02-14T02:33:27.744Z,1014.52
2019-02-14T02:34:27.751Z,1014.54
2019-02-14T02:35:27.757Z,1014.62
2019-02-14T02:36:27.760Z,1014.63
2019-02-14T02:37:27.766Z,1014.75
2019-02-14T02:38:27.771Z,1014.72
2019-02-14T02:39:27.776Z,1014.77
2019-02-14T02:40:27.781Z,1014.82
2019-02-14T02:41:27.786Z,1014.87
2019-02-14T02:42:27.790Z,1014.83
2019-02-14T02:43:27.797Z,1014.89
2019-02-14T02:44:27.802Z,1014.95
2019-02-14T02:45:27.808Z,1014.96
2019-02-14T02:46:27.813Z,1014.88
2019-02-14T02:47:27.819Z,1014.82
2019-02-14T02:48:27.822Z,1014.79
2019-02-14T02:49:29.465Z,1014.87
2019-02-14T02:50:27.832Z,1014.89
2019-02-14T02:51:27.837Z,1014.83
2019-02-14T02:52:27.844Z,1014.76
2019-02-14T02:53:27.848Z,1014.81
2019-02-14T02:54:27.853Z,1014.81
2019-02-14T02:55:27.858Z,1014.84
2019-02-14T02:56:27.864Z,1014.81
2019-02-14T02:57:27.871Z,1014.83
2019-02-14T02:58:27.873Z,1014.85
2019-02-14T02:59:27.879Z,1014.89
2019-02-14T03:00:27.883Z,1014.92
2019-02-14T03:01:27.888Z,1014.94
2019-02-14T03:02:27.893Z,1014.99
2019-02-14T03:03:27.900Z,1015.10
2019-02-14T03:04:27.906Z,1015.09
2019-02-14T03:05:27.912Z,1015.21
2019-02-14T03:06:27.914Z,1015.25
2019-02-14T03:07:27.922Z,1015.23
2019-02-14T03:08:27.927Z,1015.25
2019-02-14T03:09:27.930Z,1015.29
2019-02-14T03:10:27.934Z,1015.30
2019-02-14T03:11:27.941Z,1015.31
2019-02-14T03:12:27.946Z,1015.33
2019-02-14T03:13:27.951Z,1015.30
2019-02-14T03:14:27.959Z,1015.34
2019-02-14T03:15:27.966Z,1015.41
2019-02-14T03:16:27.971Z,1015.43
2019-02-14T03:17:27.972Z,1015.42
2019-02-14T03:18:27.978Z,1015.44
2019-02-14T03:19:27.981Z,1015.50
2019-02-14T03:20:27.989Z,1015.55
2019-02-14T03:21:27.996Z,1015.53
2019-02-14T03:22:27.996Z,1015.58
2019-02-14T03:23:28.003Z,1015.61
2019-02-14T03:24:28.008Z,1015.56
2019-02-14T03:25:28.012Z,1015.65
2019-02-14T03:26:28.019Z,1015.57
2019-02-14T03:27:28.024Z,1015.60
2019-02-14T03:28:28.027Z,1015.61
2019-02-14T03:29:28.033Z,1015.67
2019-02-14T03:30:28.038Z,1015.68
2019-02-14T03:31:28.045Z,1015.68
2019-02-14T03:32:28.048Z,1015.67
2019-02-14T03:33:28.053Z,1015.71
2019-02-14T03:34:28.059Z,1015.69
2019-02-14T03:35:28.064Z,1015.67
2019-02-14T03:36:28.069Z,1015.72
2019-02-14T03:37:28.073Z,1015.77
2019-02-14T03:38:28.080Z,1015.74
2019-02-14T03:39:28.087Z,1015.76
2019-02-14T03:40:28.090Z,1015.78
2019-02-14T03:41:28.095Z,1015.75
2019-02-14T03:42:28.100Z,1015.85
2019-02-14T03:43:28.105Z,1015.90
2019-02-14T03:44:28.112Z,1015.87
2019-02-14T03:45:28.116Z,1015.89
2019-02-14T03:46:28.120Z,1015.89
2019-02-14T03:47:28.126Z,1015.87
2019-02-14T03:48:28.131Z,1015.89
2019-02-14T03:49:28.136Z,1015.87
2019-02-14T03:50:28.141Z,1015.92
2019-02-14T03:51:28.146Z,1015.97
2019-02-14T03:52:28.151Z,1015.98
2019-02-14T03:53:28.157Z,1016.05
2019-02-14T03:54:28.161Z,1016.09
2019-02-14T03:55:28.166Z,1016.03
2019-02-14T03:56:28.172Z,1016.00
2019-02-14T03:57:28.177Z,1016.07
2019-02-14T03:58:28.183Z,1016.10
2019-02-14T03:59:28.187Z,1016.12
2019-02-14T04:00:28.196Z,1016.11
2019-02-14T04:01:28.197Z,1016.08
2019-02-14T04:02:28.202Z,1016.11
2019-02-14T04:03:28.209Z,1016.16
2019-02-14T04:04:28.214Z,1016.09
2019-02-14T04:05:28.221Z,1016.11
2019-02-14T04:06:28.223Z,1016.17
2019-02-14T04:07:28.229Z,1016.23
2019-02-14T04:08:28.233Z,1016.21
2019-02-14T04:09:28.238Z,1016.18
2019-02-14T04:10:28.245Z,1016.16
2019-02-14T04:11:28.249Z,1016.12
2019-02-14T04:12:28.254Z,1016.13
2019-02-14T04:13:28.261Z,1016.16
2019-02-14T04:14:28.264Z,1016.23
2019-02-14T04:15:28.270Z,1016.24
2019-02-14T04:16:28.273Z,1016.32
2019-02-14T04:17:28.280Z,1016.29
2019-02-14T04:18:28.285Z,1016.26
2019-02-14T04:19:28.440Z,1016.25
2019-02-14T04:20:28.294Z,1016.25
2019-02-14T04:21:28.301Z,1016.32
2019-02-14T04:22:28.304Z,1016.35
2019-02-14T04:23:28.310Z,1016.41
2019-02-14T04:24:28.317Z,1016.46
2019-02-14T04:25:28.321Z,1016.52
2019-02-14T04:26:28.327Z,1016.56
2019-02-14T04:27:28.332Z,1016.59
2019-02-14T04:28:28.335Z,1016.63
2019-02-14T04:29:28.341Z,1016.64
2019-02-14T04:30:28.346Z,1016.69
2019-02-14T04:31:28.351Z,1016.72
2019-02-14T04:32:28.356Z,1016.79
2019-02-14T04:33:28.362Z,1016.81
2019-02-14T04:34:28.366Z,1016.80
2019-02-14T04:35:28.374Z,1016.85
2019-02-14T04:36:35.762Z,1016.83
2019-02-14T04:37:28.382Z,1016.87
2019-02-14T04:38:28.387Z,1016.91
2019-02-14T04:39:28.394Z,1016.95
2019-02-14T04:40:33.615Z,1017.00
2019-02-14T04:41:28.402Z,1017.05
2019-02-14T04:42:28.406Z,1017.09
2019-02-14T04:43:28.412Z,1017.12
2019-02-14T04:44:28.417Z,1017.09
2019-02-14T04:45:28.424Z,1017.03
2019-02-14T04:46:28.428Z,1016.96
2019-02-14T04:47:28.432Z,1016.89
2019-02-14T04:48:28.439Z,1016.90
2019-02-14T04:49:28.443Z,1016.94
2019-02-14T04:50:28.448Z,1017.04
2019-02-14T04:51:28.454Z,1017.04
2019-02-14T04:52:28.460Z,1017.06
2019-02-14T04:53:28.463Z,1017.10
2019-02-14T04:54:28.468Z,1017.13
2019-02-14T04:55:28.475Z,1017.10
2019-02-14T04:56:28.478Z,1017.12
2019-02-14T04:57:28.484Z,1017.12
2019-02-14T04:58:28.489Z,1017.13
2019-02-14T04:59:28.493Z,1017.18
2019-02-14T05:00:28.503Z,1017.23
2019-02-14T05:01:28.507Z,1017.34
2019-02-14T05:02:28.510Z,1017.41
2019-02-14T05:03:28.514Z,1017.43
2019-02-14T05:04:28.520Z,1017.38
2019-02-14T05:05:28.525Z,1017.40
2019-02-14T05:06:28.529Z,1017.39
2019-02-14T05:07:28.534Z,1017.44
2019-02-14T05:08:28.540Z,1017.50
2019-02-14T05:09:28.545Z,1017.56
2019-02-14T05:10:28.551Z,1017.58
2019-02-14T05:11:28.564Z,1017.64
2019-02-14T05:12:28.559Z,1017.66
2019-02-14T05:13:28.564Z,1017.66
2019-02-14T05:14:28.572Z,1017.58
2019-02-14T05:15:28.578Z,1017.56
2019-02-14T05:16:28.580Z,1017.56
2019-02-14T05:17:28.588Z,1017.61
2019-02-14T05:18:28.642Z,1017.62
2019-02-14T05:19:28.596Z,1017.64
2019-02-14T05:20:28.602Z,1017.66
2019-02-14T05:21:28.606Z,1017.61
2019-02-14T05:22:28.612Z,1017.67
2019-02-14T05:23:28.619Z,1017.67
2019-02-14T05:24:28.624Z,1017.73
2019-02-14T05:25:28.626Z,1017.77
2019-02-14T05:26:28.632Z,1017.82
2019-02-14T05:27:28.655Z,1017.88
2019-02-14T05:28:28.640Z,1017.87
2019-02-14T05:29:28.647Z,1017.85
2019-02-14T05:30:28.654Z,1017.75
2019-02-14T05:31:28.657Z,1017.74
2019-02-14T05:32:28.663Z,1017.67
2019-02-14T05:33:28.668Z,1017.74
2019-02-14T05:34:28.673Z,1017.80
2019-02-14T05:35:28.790Z,1017.85
2019-02-14T05:36:28.682Z,1017.88
2019-02-14T05:37:28.688Z,1017.82
2019-02-14T05:38:28.695Z,1017.74
2019-02-14T05:39:28.698Z,1017.75
2019-02-14T05:40:28.703Z,1017.78
2019-02-14T05:41:28.711Z,1017.85
2019-02-14T05:42:28.715Z,1017.85
2019-02-14T05:43:28.719Z,1017.86
2019-02-14T05:44:28.724Z,1017.84
2019-02-14T05:45:28.729Z,1017.79
2019-02-14T05:46:28.735Z,1017.85
2019-02-14T05:47:28.747Z,1017.88
2019-02-14T05:48:28.745Z,1017.93
2019-02-14T05:49:28.750Z,1017.90
2019-02-14T05:50:28.756Z,1017.78
2019-02-14T05:51:28.761Z,1017.73
2019-02-14T05:52:28.766Z,1017.75
2019-02-14T05:53:28.771Z,1017.85
2019-02-14T05:54:28.776Z,1017.92
2019-02-14T05:55:28.782Z,1018.03
2019-02-14T05:56:28.786Z,1018.09
2019-02-14T05:57:28.790Z,1018.12
2019-02-14T05:58:28.795Z,1018.14
2019-02-14T05:59:28.801Z,1018.19
2019-02-14T06:00:28.808Z,1018.18
2019-02-14T06:01:28.817Z,1018.18
2019-02-14T06:02:28.817Z,1018.19
2019-02-14T06:03:28.823Z,1018.24
2019-02-14T06:04:28.826Z,1018.28
2019-02-14T06:05:28.831Z,1018.35
2019-02-14T06:06:28.838Z,1018.41
2019-02-14T06:07:28.843Z,1018.46
2019-02-14T06:08:28.847Z,1018.48
2019-02-14T06:09:28.902Z,1018.51
2019-02-14T06:10:28.858Z,1018.53
2019-02-14T06:11:28.863Z,1018.54
2019-02-14T06:12:28.866Z,1018.58
2019-02-14T06:13:28.876Z,1018.62
2019-02-14T06:14:28.879Z,1018.58
2019-02-14T06:15:28.884Z,1018.63
2019-02-14T06:16:28.886Z,1018.62
2019-02-14T06:17:28.895Z,1018.66
2019-02-14T06:18:28.899Z,1018.73
2019-02-14T06:19:28.904Z,1018.76
2019-02-14T06:20:28.910Z,1018.76
2019-02-14T06:21:28.914Z,1018.79
2019-02-14T06:22:29.174Z,1018.83
2019-02-14T06:23:30.150Z,1018.88
2019-02-14T06:24:28.929Z,1018.85
2019-02-14T06:25:28.935Z,1018.85
2019-02-14T06:26:28.942Z,1018.90
2019-02-14T06:27:28.945Z,1018.96
2019-02-14T06:28:28.948Z,1019.03
2019-02-14T06:29:28.955Z,1019.14
2019-02-14T06:30:28.960Z,1019.20
2019-02-14T06:31:28.965Z,1019.26
2019-02-14T06:32:28.970Z,1019.22
2019-02-14T06:33:28.976Z,1019.16
2019-02-14T06:34:28.980Z,1019.16
2019-02-14T06:35:28.987Z,1019.14
2019-02-14T06:36:28.990Z,1019.19
2019-02-14T06:37:28.996Z,1019.29
2019-02-14T06:38:29.005Z,1019.32
2019-02-14T06:39:29.008Z,1019.31
2019-02-14T06:40:29.010Z,1019.26
2019-02-14T06:41:29.015Z,1019.29
2019-02-14T06:42:29.027Z,1019.33
2019-02-14T06:43:29.028Z,1019.28
2019-02-14T06:44:29.032Z,1019.32
2019-02-14T06:45:29.037Z,1019.31
2019-02-14T06:46:29.042Z,1019.34
2019-02-14T06:47:29.048Z,1019.28
2019-02-14T06:48:29.052Z,1019.28
2019-02-14T06:49:29.058Z,1019.32
2019-02-14T06:50:34.599Z,1019.30
2019-02-14T06:51:29.072Z,1019.42
2019-02-14T06:52:29.073Z,1019.39
2019-02-14T06:53:29.078Z,1019.42
2019-02-14T06:54:29.083Z,1019.41
2019-02-14T06:55:29.088Z,1019.44
2019-02-14T06:56:29.094Z,1019.56
2019-02-14T06:57:29.112Z,1019.62
2019-02-14T06:58:29.103Z,1019.52
2019-02-14T06:59:29.110Z,1019.53
2019-02-14T07:00:29.118Z,1019.48
2019-02-14T07:01:29.120Z,1019.53
2019-02-14T07:02:29.124Z,1019.57
2019-02-14T07:03:29.248Z,1019.56
2019-02-14T07:04:29.134Z,1019.58
2019-02-14T07:05:29.142Z,1019.55
2019-02-14T07:06:29.147Z,1019.57
2019-02-14T07:07:29.152Z,1019.53
2019-02-14T07:08:29.158Z,1019.54
2019-02-14T07:09:29.161Z,1019.58
2019-02-14T07:10:29.166Z,1019.57
2019-02-14T07:11:29.171Z,1019.59
2019-02-14T07:12:29.178Z,1019.59
2019-02-14T07:13:29.182Z,1019.63
2019-02-14T07:14:29.187Z,1019.69
2019-02-14T07:15:29.194Z,1019.73
2019-02-14T07:16:29.199Z,1019.84
2019-02-14T07:17:29.201Z,1019.86
2019-02-14T07:18:29.209Z,1019.92
2019-02-14T07:19:29.211Z,1019.89
2019-02-14T07:20:29.222Z,1019.93
2019-02-14T07:21:29.222Z,1019.87
2019-02-14T07:22:29.229Z,1019.91
2019-02-14T07:23:29.235Z,1019.88
2019-02-14T07:24:29.242Z,1019.88
2019-02-14T07:25:29.244Z,1019.89
2019-02-14T07:26:29.249Z,1019.92
2019-02-14T07:27:29.255Z,1019.86
2019-02-14T07:28:29.257Z,1019.91
2019-02-14T07:29:29.265Z,1019.92
2019-02-14T07:30:29.269Z,1019.87
2019-02-14T07:31:29.274Z,1019.86
2019-02-14T07:32:29.280Z,1019.82
2019-02-14T07:33:29.285Z,1019.80
2019-02-14T07:34:29.291Z,1019.84
2019-02-14T07:35:29.294Z,1019.86
2019-02-14T07:36:29.304Z,1019.93
2019-02-14T07:37:29.309Z,1019.96
2019-02-14T07:38:29.311Z,1019.97
2019-02-14T07:39:29.316Z,1020.03
2019-02-14T07:40:29.784Z,1020.12
2019-02-14T07:41:29.327Z,1020.18
2019-02-14T07:42:29.330Z,1020.22
2019-02-14T07:43:29.338Z,1020.20
2019-02-14T07:44:29.342Z,1020.17
2019-02-14T07:45:29.363Z,1020.16
2019-02-14T07:46:29.352Z,1020.24
2019-02-14T07:47:29.357Z,1020.28
2019-02-14T07:48:29.362Z,1020.27
2019-02-14T07:49:29.368Z,1020.29
2019-02-14T07:50:29.371Z,1020.31
2019-02-14T07:51:29.380Z,1020.33
2019-02-14T07:52:29.383Z,1020.25
2019-02-14T07:53:29.391Z,1020.26
2019-02-14T07:54:29.394Z,1020.20
2019-02-14T07:55:29.398Z,1020.20
2019-02-14T07:56:29.403Z,1020.18
2019-02-14T07:57:29.445Z,1020.22
2019-02-14T07:58:29.414Z,1020.27
2019-02-14T07:59:29.420Z,1020.31
2019-02-14T08:00:29.424Z,1020.31
2019-02-14T08:01:29.430Z,1020.27
2019-02-14T08:02:29.437Z,1020.22
2019-02-14T08:03:29.446Z,1020.23
2019-02-14T08:04:29.448Z,1020.26
2019-02-14T08:05:29.451Z,1020.25
2019-02-14T08:06:29.517Z,1020.25
2019-02-14T08:07:35.699Z,1020.23
2019-02-14T08:08:29.465Z,1020.22
2019-02-14T08:09:29.470Z,1020.19
2019-02-14T08:10:29.476Z,1020.16
2019-02-14T08:11:29.482Z,1020.17
2019-02-14T08:12:29.487Z,1020.24
2019-02-14T08:13:29.492Z,1020.27
2019-02-14T08:14:29.498Z,1020.30
2019-02-14T08:15:29.515Z,1020.35
2019-02-14T08:16:29.507Z,1020.41
2019-02-14T08:17:29.515Z,1020.48
2019-02-14T08:18:29.520Z,1020.47
2019-02-14T08:19:29.526Z,1020.49
2019-02-14T08:20:29.532Z,1020.56
2019-02-14T08:21:29.534Z,1020.57
2019-02-14T08:22:29.540Z,1020.58
2019-02-14T08:23:29.545Z,1020.61
2019-02-14T08:24:29.550Z,1020.61
2019-02-14T08:25:29.555Z,1020.63
2019-02-14T08:26:29.559Z,1020.70
2019-02-14T08:27:29.569Z,1020.76
2019-02-14T08:28:29.572Z,1020.77
2019-02-14T08:29:29.576Z,1020.78
2019-02-14T08:30:29.581Z,1020.74
2019-02-14T08:31:29.587Z,1020.77
2019-02-14T08:32:29.591Z,1020.77
2019-02-14T08:33:29.596Z,1020.80
2019-02-14T08:34:29.603Z,1020.78
2019-02-14T08:35:29.759Z,1020.76
2019-02-14T08:36:29.617Z,1020.77
2019-02-14T08:37:29.618Z,1020.75
2019-02-14T08:38:29.623Z,1020.77
2019-02-14T08:39:29.647Z,1020.77
2019-02-14T08:40:29.649Z,1020.80
2019-02-14T08:41:29.640Z,1020.83
2019-02-14T08:42:29.649Z,1020.83
2019-02-14T08:43:29.653Z,1020.79
2019-02-14T08:44:29.654Z,1020.76
2019-02-14T08:45:29.660Z,1020.72
2019-02-14T08:46:29.664Z,1020.73
2019-02-14T08:47:29.671Z,1020.67
2019-02-14T08:48:29.676Z,1020.68
2019-02-14T08:49:29.683Z,1020.68
2019-02-14T08:50:29.686Z,1020.67
2019-02-14T08:51:29.690Z,1020.65
2019-02-14T08:52:29.695Z,1020.64
2019-02-14T08:53:29.700Z,1020.63
2019-02-14T08:54:29.708Z,1020.58
2019-02-14T08:55:29.712Z,1020.59
2019-02-14T08:56:29.728Z,1020.59
2019-02-14T08:57:29.721Z,1020.58
2019-02-14T08:58:29.731Z,1020.57
2019-02-14T08:59:29.734Z,1020.54
2019-02-14T09:00:29.741Z,1020.55
2019-02-14T09:01:29.744Z,1020.57
2019-02-14T09:02:29.751Z,1020.54
2019-02-14T09:03:29.756Z,1020.53
2019-02-14T09:04:29.760Z,1020.53
2019-02-14T09:05:29.765Z,1020.55
2019-02-14T09:06:29.774Z,1020.53
2019-02-14T09:07:29.778Z,1020.50
2019-02-14T09:08:29.782Z,1020.49
2019-02-14T09:09:29.787Z,1020.49
2019-02-14T09:10:29.796Z,1020.49
2019-02-14T09:11:29.800Z,1020.49
2019-02-14T09:12:29.802Z,1020.43
2019-02-14T09:13:29.811Z,1020.46
2019-02-14T09:14:29.814Z,1020.46
2019-02-14T09:15:29.819Z,1020.48
2019-02-14T09:16:29.824Z,1020.51
2019-02-14T09:17:29.828Z,1020.44
2019-02-14T09:18:29.838Z,1020.43
2019-02-14T09:19:29.841Z,1020.42
2019-02-14T09:20:29.845Z,1020.38
2019-02-14T09:21:29.851Z,1020.35
2019-02-14T09:22:29.856Z,1020.33
2019-02-14T09:23:29.862Z,1020.33
2019-02-14T09:24:29.866Z,1020.42
2019-02-14T09:25:29.870Z,1020.41
2019-02-14T09:26:29.877Z,1020.45
2019-02-14T09:27:29.883Z,1020.43
2019-02-14T09:28:29.886Z,1020.43
2019-02-14T09:29:29.902Z,1020.40
2019-02-14T09:30:29.901Z,1020.45
2019-02-14T09:31:29.904Z,1020.44
2019-02-14T09:32:29.910Z,1020.47
2019-02-14T09:33:29.920Z,1020.46
2019-02-14T09:34:29.921Z,1020.51
2019-02-14T09:35:29.930Z,1020.52
2019-02-14T09:36:29.930Z,1020.56
2019-02-14T09:37:29.937Z,1020.58
2019-02-14T09:38:29.960Z,1020.57
2019-02-14T09:39:29.947Z,1020.55
2019-02-14T09:40:29.952Z,1020.57
2019-02-14T09:41:29.958Z,1020.57
2019-02-14T09:42:29.962Z,1020.63
2019-02-14T09:43:30.261Z,1020.64
2019-02-14T09:44:29.974Z,1020.67
2019-02-14T09:45:29.983Z,1020.71
2019-02-14T09:46:29.997Z,1020.75
2019-02-14T09:47:29.997Z,1020.81
2019-02-14T09:48:29.994Z,1020.85
2019-02-14T09:49:30.001Z,1020.86
2019-02-14T09:50:30.007Z,1020.92
2019-02-14T09:51:30.030Z,1020.91
2019-02-14T09:52:30.018Z,1020.86
2019-02-14T09:53:30.041Z,1020.83
2019-02-14T09:54:30.036Z,1020.80
2019-02-14T09:55:30.034Z,1020.77
2019-02-14T09:56:30.039Z,1020.78
2019-02-14T09:57:30.044Z,1020.81
2019-02-14T09:58:30.051Z,1020.75
2019-02-14T09:59:30.074Z,1020.70
2019-02-14T10:00:30.070Z,1020.58
2019-02-14T10:01:30.070Z,1020.59
2019-02-14T10:02:30.078Z,1020.64
2019-02-14T10:03:30.081Z,1020.65
2019-02-14T10:04:30.085Z,1020.67
2019-02-14T10:05:30.091Z,1020.69
2019-02-14T10:06:36.305Z,1020.68
2019-02-14T10:07:30.101Z,1020.66
2019-02-14T10:08:30.107Z,1020.67
2019-02-14T10:09:30.124Z,1020.72
2019-02-14T10:10:30.118Z,1020.77
2019-02-14T10:11:30.130Z,1020.74
2019-02-14T10:12:30.128Z,1020.76
2019-02-14T10:13:30.135Z,1020.82
2019-02-14T10:14:30.147Z,1020.87
2019-02-14T10:15:30.146Z,1020.98
2019-02-14T10:16:30.150Z,1020.94
2019-02-14T10:17:30.157Z,1020.92
2019-02-14T10:18:30.164Z,1020.89
2019-02-14T10:19:30.173Z,1020.83
2019-02-14T10:20:30.176Z,1020.91
2019-02-14T10:21:30.190Z,1020.85
2019-02-14T10:22:30.189Z,1020.82
2019-02-14T10:23:30.193Z,1020.82
2019-02-14T10:24:30.199Z,1020.79
2019-02-14T10:25:30.202Z,1020.72
2019-02-14T10:26:30.208Z,1020.76
2019-02-14T10:27:30.216Z,1020.68
2019-02-14T10:28:30.221Z,1020.66
2019-02-14T10:29:30.227Z,1020.64
2019-02-14T10:30:30.231Z,1020.65
2019-02-14T10:31:30.238Z,1020.58
2019-02-14T10:32:30.244Z,1020.57
2019-02-14T10:33:30.248Z,1020.58
2019-02-14T10:34:30.256Z,1020.51
2019-02-14T10:35:30.264Z,1020.54
2019-02-14T10:36:30.267Z,1020.59
2019-02-14T10:37:30.275Z,1020.60
2019-02-14T10:38:30.279Z,1020.57
2019-02-14T10:39:30.286Z,1020.53
2019-02-14T10:40:30.292Z,1020.49
2019-02-14T10:41:30.297Z,1020.50
2019-02-14T10:42:30.302Z,1020.51
2019-02-14T10:43:30.308Z,1020.54
2019-02-14T10:44:30.313Z,1020.52
2019-02-14T10:45:30.323Z,1020.51
2019-02-14T10:46:30.327Z,1020.47
2019-02-14T10:47:30.332Z,1020.46
2019-02-14T10:48:30.337Z,1020.48
2019-02-14T10:49:30.347Z,1020.50
2019-02-14T10:50:30.350Z,1020.51
2019-02-14T10:51:30.355Z,1020.53
2019-02-14T10:52:30.359Z,1020.50
2019-02-14T10:53:30.369Z,1020.46
2019-02-14T10:54:30.373Z,1020.42
2019-02-14T10:55:30.378Z,1020.36
2019-02-14T10:56:30.383Z,1020.35
2019-02-14T10:57:30.390Z,1020.32
2019-02-14T10:58:30.395Z,1020.27
2019-02-14T10:59:30.403Z,1020.29
2019-02-14T11:00:30.405Z,1020.28
2019-02-14T11:01:30.411Z,1020.26
2019-02-14T11:02:30.490Z,1020.25
2019-02-14T11:03:30.424Z,1020.21
2019-02-14T11:04:30.429Z,1020.11
2019-02-14T11:05:30.435Z,1020.12
2019-02-14T11:06:30.440Z,1020.03
2019-02-14T11:07:30.447Z,1020.08
2019-02-14T11:08:31.972Z,1020.05
2019-02-14T11:09:30.460Z,1020.06
2019-02-14T11:10:30.465Z,1020.06
2019-02-14T11:11:30.470Z,1020.09
2019-02-14T11:12:30.475Z,1020.08
2019-02-14T11:13:30.482Z,1020.01
2019-02-14T11:14:30.486Z,1020.06
2019-02-14T11:15:30.495Z,1020.13
2019-02-14T11:16:30.498Z,1020.09
2019-02-14T11:17:30.504Z,1020.05
2019-02-14T11:18:30.511Z,1020.01
2019-02-14T11:19:30.516Z,1019.98
2019-02-14T11:20:30.520Z,1019.91
2019-02-14T11:21:30.526Z,1019.93
2019-02-14T11:22:30.533Z,1019.89
2019-02-14T11:23:30.538Z,1019.94
2019-02-14T11:24:30.544Z,1019.93
2019-02-14T11:25:30.604Z,1019.96
2019-02-14T11:26:30.555Z,1019.85
2019-02-14T11:27:30.573Z,1019.89
2019-02-14T11:28:30.569Z,1019.89
2019-02-14T11:29:30.572Z,1019.86
2019-02-14T11:30:30.593Z,1019.90
2019-02-14T11:31:30.585Z,1019.93
2019-02-14T11:32:30.592Z,1019.88
2019-02-14T11:33:30.597Z,1019.81
2019-02-14T11:34:30.603Z,1019.85
2019-02-14T11:35:30.607Z,1019.83
2019-02-14T11:36:30.621Z,1019.86
2019-02-14T11:37:30.621Z,1019.80
2019-02-14T11:38:30.628Z,1019.70
2019-02-14T11:39:30.632Z,1019.67
2019-02-14T11:40:30.639Z,1019.63
2019-02-14T11:41:30.649Z,1019.66
2019-02-14T11:42:30.650Z,1019.72
2019-02-14T11:43:30.657Z,1019.69
2019-02-14T11:44:39.392Z,1019.64
2019-02-14T11:45:30.670Z,1019.61
2019-02-14T11:46:30.683Z,1019.61
2019-02-14T11:47:30.683Z,1019.64
2019-02-14T11:48:30.686Z,1019.63
2019-02-14T11:49:30.694Z,1019.61
2019-02-14T11:50:30.700Z,1019.66
2019-02-14T11:51:30.705Z,1019.68
2019-02-14T11:52:30.709Z,1019.65
2019-02-14T11:53:30.715Z,1019.64
2019-02-14T11:54:30.721Z,1019.63
2019-02-14T11:55:30.729Z,1019.64
2019-02-14T11:56:30.734Z,1019.61
2019-02-14T11:57:30.741Z,1019.57
2019-02-14T11:58:30.747Z,1019.54
2019-02-14T11:59:30.765Z,1019.54
2019-02-14T12:00:30.757Z,1019.47
2019-02-14T12:01:30.764Z,1019.44
2019-02-14T12:02:30.770Z,1019.41
2019-02-14T12:03:30.777Z,1019.41
2019-02-14T12:04:30.781Z,1019.42
2019-02-14T12:05:30.787Z,1019.41